createdAt,value
2024-02-26T06:14:45.835Z,99388.94
2024-02-26T06:17:58.725Z,99386.16
2024-02-26T06:21:14.225Z,99391.53
2024-02-26T06:24:26.969Z,99390.97
2024-02-26T06:27:39.630Z,99392.97
2024-02-26T06:30:53.599Z,99389.69
2024-02-26T06:34:06.269Z,99397.34
2024-02-26T06:37:19.207Z,99389.47
2024-02-26T06:40:31.679Z,99397.69
2024-02-26T06:43:44.370Z,99405.56
2024-02-26T06:46:57.782Z,99414.81
2024-02-26T06:50:12.527Z,99409.13
2024-02-26T06:53:25.296Z,99407.50
2024-02-26T06:56:38.008Z,99409.53
2024-02-26T06:59:50.812Z,99405.09
2024-02-26T07:03:03.642Z,99406.97
2024-02-26T07:06:16.324Z,99409.34
2024-02-26T07:09:29.170Z,99411.22
2024-02-26T07:12:41.695Z,99417.44
2024-02-26T07:15:54.442Z,99412.13
2024-02-26T07:19:06.984Z,99407.00
2024-02-26T07:22:19.757Z,99414.41
2024-02-26T07:25:33.232Z,99411.81
2024-02-26T07:28:46.005Z,99411.88
2024-02-26T07:31:59.193Z,99409.19
2024-02-26T07:35:11.977Z,99420.50
2024-02-26T07:38:32.414Z,99421.31
2024-02-26T07:41:55.042Z,99431.81
2024-02-26T07:45:08.042Z,99431.22
2024-02-26T07:48:20.797Z,99428.31
2024-02-26T07:51:33.263Z,99413.25
2024-02-26T07:54:45.985Z,99423.63
2024-02-26T07:57:58.396Z,99414.00
2024-02-26T08:01:14.755Z,99423.72
2024-02-26T08:04:28.382Z,99413.81
2024-02-26T08:07:43.727Z,99425.81
2024-02-26T08:10:56.620Z,99430.97
2024-02-26T08:14:09.122Z,99438.06
2024-02-26T08:17:21.825Z,99428.75
2024-02-26T08:20:34.256Z,99435.63
2024-02-26T08:23:47.063Z,99444.50
2024-02-26T08:26:59.582Z,99441.28
2024-02-26T08:30:15.494Z,99440.84
2024-02-26T08:33:28.313Z,99441.06
2024-02-26T08:36:41.128Z,99449.47
2024-02-26T08:39:53.685Z,99445.75
2024-02-26T08:43:06.544Z,99444.00
2024-02-26T08:46:19.181Z,99442.59
2024-02-26T08:49:32.682Z,99446.75
2024-02-26T08:52:47.412Z,99457.19
2024-02-26T08:56:00.154Z,99467.87
2024-02-26T08:59:12.667Z,99464.75
2024-02-26T09:02:25.451Z,99462.31
2024-02-26T09:05:37.888Z,99467.25
2024-02-26T09:08:50.619Z,99462.72
2024-02-26T09:12:03.769Z,99463.16
2024-02-26T09:15:16.773Z,99455.13
2024-02-26T09:18:30.569Z,99463.31
2024-02-26T09:21:44.690Z,99468.81
2024-02-26T09:24:57.131Z,99474.22
2024-02-26T09:28:09.907Z,99464.00
2024-02-26T09:31:22.303Z,99472.69
2024-02-26T09:34:36.174Z,99470.25
2024-02-26T09:37:50.183Z,99472.75
2024-02-26T09:41:06.328Z,99475.06
2024-02-26T09:44:22.349Z,99481.88
2024-02-26T09:47:35.169Z,99481.94
2024-02-26T09:50:48.013Z,99475.41
2024-02-26T09:54:02.830Z,99477.88
2024-02-26T09:57:18.115Z,99490.09
2024-02-26T10:00:35.153Z,99488.38
2024-02-26T10:03:51.698Z,99490.06
2024-02-26T10:07:05.138Z,99481.88
2024-02-26T10:10:18.713Z,99497.03
2024-02-26T10:13:31.149Z,99495.78
2024-02-26T10:16:47.924Z,99493.47
2024-02-26T10:20:17.822Z,99488.44
2024-02-26T10:23:30.726Z,99491.78
2024-02-26T10:26:47.716Z,99483.22
2024-02-26T10:30:20.348Z,99492.31
2024-02-26T10:33:38.549Z,99472.88
2024-02-26T10:36:53.765Z,99475.06
2024-02-26T10:40:10.714Z,99468.00
2024-02-26T10:43:23.412Z,99470.91
2024-02-26T10:46:35.943Z,99465.31
2024-02-26T10:49:51.351Z,99462.00
2024-02-26T10:53:04.143Z,99452.31
2024-02-26T10:56:16.835Z,99450.84
2024-02-26T10:59:30.575Z,99451.13
2024-02-26T11:02:43.278Z,99446.91
2024-02-26T11:05:55.808Z,99455.56
2024-02-26T11:09:09.462Z,99448.62
2024-02-26T11:12:22.478Z,99443.94
2024-02-26T11:15:35.471Z,99440.53
2024-02-26T11:18:50.960Z,99441.50
2024-02-26T11:22:15.780Z,99443.81
2024-02-26T11:25:36.545Z,99439.69
2024-02-26T11:28:52.588Z,99442.91
2024-02-26T11:32:06.484Z,99439.59
2024-02-26T11:35:19.890Z,99436.16
2024-02-26T11:38:35.438Z,99437.97
2024-02-26T11:41:48.297Z,99438.47
2024-02-26T11:45:02.179Z,99440.72
2024-02-26T11:48:16.431Z,99447.72
2024-02-26T11:51:29.635Z,99445.94
2024-02-26T11:54:58.173Z,99441.22
2024-02-26T11:58:10.834Z,99438.69
2024-02-26T12:01:40.208Z,99440.44
2024-02-26T12:04:53.071Z,99438.91
2024-02-26T12:08:09.161Z,99441.88
2024-02-26T12:11:22.844Z,99441.31
2024-02-26T12:14:43.229Z,99438.69
2024-02-26T12:17:57.153Z,99444.31
2024-02-26T12:21:15.938Z,99442.78
2024-02-26T12:24:30.011Z,99444.66
2024-02-26T12:27:43.720Z,99440.81
2024-02-26T12:30:56.501Z,99448.75
2024-02-26T12:34:11.145Z,99435.00
2024-02-26T12:37:23.934Z,99415.38
2024-02-26T12:40:36.545Z,99424.22
2024-02-26T12:43:52.171Z,99435.44
2024-02-26T12:47:05.423Z,99428.06
2024-02-26T12:50:19.509Z,99424.00
2024-02-26T12:53:32.941Z,99432.97
2024-02-26T12:56:45.863Z,99431.41
2024-02-26T12:59:58.491Z,99435.72
2024-02-26T13:03:11.252Z,99428.56
2024-02-26T13:06:24.420Z,99425.97
2024-02-26T13:09:37.433Z,99429.94
2024-02-26T13:12:56.570Z,99424.66
2024-02-26T13:16:15.375Z,99424.91
2024-02-26T13:19:29.259Z,99426.25
2024-02-26T13:22:42.038Z,99434.72
2024-02-26T13:25:57.515Z,99439.94
2024-02-26T13:29:10.188Z,99429.94
2024-02-26T13:32:22.584Z,99437.56
2024-02-26T13:35:36.193Z,99427.06
2024-02-26T13:38:56.026Z,99435.44
2024-02-26T13:42:09.116Z,99430.41
2024-02-26T13:45:21.607Z,99435.03
2024-02-26T13:48:34.459Z,99430.47
2024-02-26T13:51:47.007Z,99435.09
2024-02-26T13:55:00.574Z,99429.41
2024-02-26T13:58:14.747Z,99427.28
2024-02-26T14:01:27.591Z,99425.16
2024-02-26T14:04:40.383Z,99424.63
2024-02-26T14:07:54.239Z,99422.28
2024-02-26T14:11:07.305Z,99420.59
2024-02-26T14:14:19.776Z,99419.81
2024-02-26T14:17:32.450Z,99420.25
2024-02-26T14:20:45.775Z,99419.91
2024-02-26T14:23:58.505Z,99419.41
2024-02-26T14:27:11.698Z,99422.03
2024-02-26T14:30:24.530Z,99416.75
2024-02-26T14:33:39.953Z,99417.00
2024-02-26T14:36:52.743Z,99411.72
2024-02-26T14:40:06.987Z,99418.88
2024-02-26T14:43:19.646Z,99406.16
2024-02-26T14:46:32.112Z,99405.66
2024-02-26T14:49:44.860Z,99405.44
2024-02-26T14:52:57.350Z,99417.13
2024-02-26T14:56:10.647Z,99412.78
2024-02-26T14:59:23.062Z,99401.97
2024-02-26T15:02:35.756Z,99405.16
2024-02-26T15:05:48.211Z,99401.97
2024-02-26T15:09:01.924Z,99409.78
2024-02-26T15:12:19.053Z,99413.34
2024-02-26T15:15:32.546Z,99405.75
2024-02-26T15:18:45.090Z,99409.75
2024-02-26T15:21:57.976Z,99411.63
2024-02-26T15:25:12.918Z,99406.91
2024-02-26T15:28:29.884Z,99413.22
2024-02-26T15:31:43.025Z,99413.87
2024-02-26T15:34:56.094Z,99413.22
2024-02-26T15:38:08.596Z,99421.03
2024-02-26T15:41:21.309Z,99420.78
2024-02-26T15:44:33.717Z,99424.91
2024-02-26T15:47:48.806Z,99423.78
2024-02-26T15:51:01.325Z,99429.34
2024-02-26T15:54:14.076Z,99430.59
2024-02-26T15:57:26.493Z,99435.53
2024-02-26T16:00:43.248Z,99436.09
2024-02-26T16:03:57.091Z,99442.25
2024-02-26T16:07:14.152Z,99443.13
2024-02-26T16:10:28.699Z,99431.72
2024-02-26T16:13:41.263Z,99434.81
2024-02-26T16:17:35.122Z,99441.62
2024-02-26T16:20:48.450Z,99439.78
2024-02-26T16:24:01.536Z,99436.13
2024-02-26T16:27:14.291Z,99444.13
2024-02-26T16:30:26.960Z,99445.47
2024-02-26T16:33:39.879Z,99449.25
2024-02-26T16:36:52.627Z,99443.72
2024-02-26T16:40:06.175Z,99455.97
2024-02-26T16:43:18.893Z,99458.84
2024-02-26T16:46:31.352Z,99469.53
2024-02-26T16:49:44.167Z,99466.81
2024-02-26T16:52:56.928Z,99474.87
2024-02-26T16:56:12.512Z,99480.09
2024-02-26T16:59:29.315Z,99488.44
2024-02-26T17:02:42.447Z,99493.56
2024-02-26T17:05:54.946Z,99493.19
2024-02-26T17:09:09.192Z,99502.09
2024-02-26T17:12:23.446Z,99505.59
2024-02-26T17:15:36.948Z,99505.03
2024-02-26T17:18:49.454Z,99511.88
2024-02-26T17:22:02.188Z,99518.47
2024-02-26T17:25:15.066Z,99510.50
2024-02-26T17:28:27.705Z,99512.91
2024-02-26T17:31:43.625Z,99523.72
2024-02-26T17:34:56.828Z,99527.69
2024-02-26T17:38:09.377Z,99523.94
2024-02-26T17:41:23.435Z,99524.97
2024-02-26T17:44:37.712Z,99529.44
2024-02-26T17:47:52.029Z,99539.22
2024-02-26T17:51:07.169Z,99535.53
2024-02-26T17:54:20.132Z,99542.59
2024-02-26T17:57:32.712Z,99534.00
2024-02-26T18:00:47.668Z,99524.56
2024-02-26T18:04:00.490Z,99537.47
2024-02-26T18:07:14.219Z,99534.44
2024-02-26T18:10:26.958Z,99543.25
2024-02-26T18:13:42.596Z,99545.97
2024-02-26T18:16:55.274Z,99549.84
2024-02-26T18:20:09.357Z,99550.38
2024-02-26T18:23:21.989Z,99554.69
2024-02-26T18:26:35.225Z,99552.97
2024-02-26T18:29:47.921Z,99555.28
2024-02-26T18:33:00.623Z,99555.06
2024-02-26T18:36:13.721Z,99557.09
2024-02-26T18:39:26.318Z,99565.56
2024-02-26T18:42:40.700Z,99560.78
2024-02-26T18:45:53.286Z,99566.84
2024-02-26T18:49:06.056Z,99569.31
2024-02-26T18:52:18.466Z,99571.63
2024-02-26T18:55:31.347Z,99569.19
2024-02-26T18:58:44.065Z,99569.56
2024-02-26T19:01:56.764Z,99566.78
2024-02-26T19:05:09.358Z,99565.41
2024-02-26T19:08:22.228Z,99569.66
2024-02-26T19:11:34.714Z,99563.09
2024-02-26T19:14:47.441Z,99571.59
2024-02-26T19:18:01.694Z,99571.03
2024-02-26T19:21:14.504Z,99576.16
2024-02-26T19:24:26.979Z,99572.53
2024-02-26T19:27:39.776Z,99574.03
2024-02-26T19:30:52.252Z,99577.91
2024-02-26T19:34:05.123Z,99583.63
2024-02-26T19:37:17.597Z,99586.41
2024-02-26T19:40:30.523Z,99595.22
2024-02-26T19:43:42.920Z,99606.13
2024-02-26T19:46:55.593Z,99613.37
2024-02-26T19:50:08.785Z,99612.56
2024-02-26T19:53:21.785Z,99617.97
2024-02-26T19:56:35.791Z,99619.37
2024-02-26T19:59:48.418Z,99617.59
2024-02-26T20:03:00.845Z,99615.81
2024-02-26T20:06:14.936Z,99616.81
2024-02-26T20:09:31.408Z,99620.22
2024-02-26T20:12:44.383Z,99625.41
2024-02-26T20:15:56.839Z,99623.62
2024-02-26T20:19:10.430Z,99630.44
2024-02-26T20:22:22.876Z,99630.63
2024-02-26T20:25:36.477Z,99635.84
2024-02-26T20:28:48.893Z,99640.66
2024-02-26T20:32:01.600Z,99645.44
2024-02-26T20:35:14.048Z,99646.66
2024-02-26T20:38:26.703Z,99640.75
2024-02-26T20:41:39.151Z,99645.00
2024-02-26T20:44:52.253Z,99647.31
2024-02-26T20:48:05.210Z,99643.63
2024-02-26T20:51:18.033Z,99656.38
2024-02-26T20:54:30.574Z,99655.25
2024-02-26T20:57:43.974Z,99669.56
2024-02-26T21:00:57.435Z,99682.81
2024-02-26T21:04:10.178Z,99674.19
2024-02-26T21:07:22.704Z,99684.03
2024-02-26T21:10:35.686Z,99689.59
2024-02-26T21:13:48.178Z,99684.41
2024-02-26T21:17:00.892Z,99690.38
2024-02-26T21:20:15.685Z,99702.22
2024-02-26T21:23:28.512Z,99706.00
2024-02-26T21:26:40.977Z,99707.56
2024-02-26T21:29:53.716Z,99713.56
2024-02-26T21:33:06.136Z,99706.50
2024-02-26T21:36:19.156Z,99701.50
2024-02-26T21:39:31.658Z,99712.37
2024-02-26T21:42:44.384Z,99706.16
2024-02-26T21:45:56.747Z,99705.56
2024-02-26T21:49:09.500Z,99702.19
2024-02-26T21:52:21.930Z,99705.63
2024-02-26T21:55:35.123Z,99700.81
2024-02-26T21:58:47.846Z,99697.03
2024-02-26T22:02:00.563Z,99703.00
2024-02-26T22:05:13.209Z,99702.22
2024-02-26T22:08:25.849Z,99706.22
2024-02-26T22:11:41.566Z,99702.41
2024-02-26T22:14:54.230Z,99702.41
2024-02-26T22:18:07.513Z,99698.19
2024-02-26T22:21:19.877Z,99700.41
2024-02-26T22:24:32.592Z,99702.44
2024-02-26T22:27:47.021Z,99705.25
2024-02-26T22:30:59.678Z,99706.06
2024-02-26T22:34:12.215Z,99724.50
2024-02-26T22:37:24.998Z,99719.87
2024-02-26T22:40:37.897Z,99723.69
2024-02-26T22:43:50.552Z,99723.88
2024-02-26T22:47:02.931Z,99728.50
2024-02-26T22:50:15.896Z,99734.09
2024-02-26T22:53:28.265Z,99740.91
2024-02-26T22:56:40.914Z,99747.50
2024-02-26T22:59:53.338Z,99749.31
2024-02-26T23:03:06.195Z,99746.09
2024-02-26T23:06:18.729Z,99745.50
2024-02-26T23:09:31.470Z,99753.75
2024-02-26T23:12:44.006Z,99751.34
2024-02-26T23:15:56.713Z,99756.13
2024-02-26T23:19:09.135Z,99745.09
2024-02-26T23:22:21.892Z,99749.31
2024-02-26T23:25:34.685Z,99754.31
2024-02-26T23:28:47.544Z,99767.34
2024-02-26T23:31:59.944Z,99770.56
2024-02-26T23:35:12.762Z,99774.97
2024-02-26T23:38:25.197Z,99779.34
2024-02-26T23:41:38.350Z,99774.94
2024-02-26T23:44:52.617Z,99777.53
2024-02-26T23:48:05.882Z,99775.31
2024-02-26T23:51:18.390Z,99778.31
2024-02-26T23:54:31.291Z,99777.31
2024-02-26T23:57:43.747Z,99776.53
